createdAt,value
2022-12-13T00:00:36.537Z,20.07
2022-12-13T00:03:22.960Z,18.37
2022-12-13T00:06:13.442Z,22.60
2022-12-13T00:09:00.893Z,21.73
2022-12-13T00:11:48.824Z,17.83
2022-12-13T00:14:35.785Z,17.17
2022-12-13T00:17:22.685Z,19.80
2022-12-13T00:20:09.988Z,22.50
2022-12-13T00:22:58.038Z,23.73
2022-12-13T00:25:44.767Z,22.57
2022-12-13T00:28:31.298Z,22.60
2022-12-13T00:34:25.672Z,20.27
2022-12-13T00:37:12.407Z,19.37
2022-12-13T00:40:00.614Z,21.60
2022-12-13T00:42:47.398Z,21.33
2022-12-13T00:45:34.416Z,24.57
2022-12-13T00:48:21.166Z,21.17
2022-12-13T00:51:08.782Z,21.50
2022-12-13T00:53:55.619Z,16.80
2022-12-13T00:56:43.575Z,18.03
2022-12-13T00:59:30.530Z,18.73
2022-12-13T01:02:16.901Z,16.83
2022-12-13T01:05:03.539Z,15.63
2022-12-13T01:07:50.323Z,15.80
2022-12-13T01:10:36.711Z,17.67
2022-12-13T01:13:24.463Z,14.57
2022-12-13T01:16:13.411Z,16.10
2022-12-13T01:19:00.347Z,14.43
2022-12-13T01:21:46.797Z,13.27
2022-12-13T01:24:33.785Z,16.53
2022-12-13T01:27:20.457Z,18.43
2022-12-13T01:30:09.144Z,15.17
2022-12-13T01:32:56.119Z,15.70
2022-12-13T01:35:42.589Z,12.37
2022-12-13T01:38:28.978Z,14.57
2022-12-13T01:41:18.272Z,13.33
2022-12-13T01:44:06.434Z,15.87
2022-12-13T01:46:55.148Z,13.97
2022-12-13T01:49:42.351Z,13.07
2022-12-13T01:52:31.307Z,15.97
2022-12-13T01:55:19.959Z,12.77
2022-12-13T01:58:07.554Z,16.73
2022-12-13T02:00:54.487Z,14.63
2022-12-13T02:03:43.047Z,10.37
2022-12-13T02:06:35.482Z,12.13
2022-12-13T02:09:22.730Z,12.37
2022-12-13T02:12:09.686Z,17.17
2022-12-13T02:14:56.737Z,14.70
2022-12-13T02:18:03.600Z,12.87
2022-12-13T02:21:04.958Z,11.40
2022-12-13T02:24:22.534Z,11.17
2022-12-13T02:27:14.540Z,14.83
2022-12-13T02:30:24.830Z,14.37
2022-12-13T02:33:36.839Z,14.17
2022-12-13T02:36:36.688Z,15.07
2022-12-13T02:39:30.624Z,14.50
2022-12-13T02:42:24.061Z,15.90
2022-12-13T02:45:20.300Z,15.43
2022-12-13T02:48:11.849Z,12.50
2022-12-13T02:51:00.687Z,11.37
2022-12-13T02:53:48.025Z,13.57
2022-12-13T02:56:34.598Z,15.03
2022-12-13T02:59:21.225Z,10.70
2022-12-13T03:02:30.930Z,18.00
2022-12-13T03:05:46.239Z,16.03
2022-12-13T03:08:40.669Z,13.13
2022-12-13T03:11:49.971Z,13.27
2022-12-13T03:14:40.560Z,13.77
2022-12-13T03:17:29.146Z,15.13
2022-12-13T03:20:22.787Z,14.47
2022-12-13T03:23:12.435Z,12.10
2022-12-13T03:26:04.113Z,14.37
2022-12-13T03:28:51.541Z,13.73
2022-12-13T03:31:38.092Z,13.67
2022-12-13T03:34:24.514Z,12.40
2022-12-13T03:37:10.881Z,12.27
2022-12-13T03:39:59.202Z,14.00
2022-12-13T03:42:45.708Z,12.87
2022-12-13T03:45:32.131Z,15.47
2022-12-13T03:48:22.773Z,15.07
2022-12-13T03:51:09.991Z,15.03
2022-12-13T03:53:56.429Z,14.67
2022-12-13T03:56:44.234Z,13.30
2022-12-13T03:59:30.947Z,13.63
2022-12-13T04:02:31.398Z,13.27
2022-12-13T04:05:18.557Z,14.43
2022-12-13T04:08:05.759Z,11.03
2022-12-13T04:11:23.129Z,15.37
2022-12-13T04:14:11.591Z,10.73
2022-12-13T04:16:58.445Z,14.67
2022-12-13T04:19:45.054Z,15.40
2022-12-13T04:22:31.419Z,12.40
2022-12-13T04:25:19.278Z,12.23
2022-12-13T04:28:06.191Z,12.60
2022-12-13T04:30:54.640Z,14.03
2022-12-13T04:33:41.045Z,9.70
2022-12-13T04:36:31.462Z,14.87
2022-12-13T04:39:21.897Z,12.27
2022-12-13T04:42:09.800Z,11.37
2022-12-13T04:44:56.304Z,11.03
2022-12-13T04:47:44.517Z,14.23
2022-12-13T04:50:31.259Z,14.00
2022-12-13T04:53:17.634Z,10.97
2022-12-13T04:56:04.565Z,14.07
2022-12-13T04:58:51.093Z,14.37
2022-12-13T05:01:37.485Z,12.10
2022-12-13T05:04:32.124Z,14.70
2022-12-13T05:07:19.165Z,17.57
2022-12-13T05:10:06.495Z,10.60
2022-12-13T05:12:53.104Z,14.07
2022-12-13T05:15:39.568Z,14.80
2022-12-13T05:18:26.609Z,15.93
2022-12-13T05:21:14.542Z,10.27
2022-12-13T05:24:00.900Z,11.90
2022-12-13T05:26:47.429Z,14.87
2022-12-13T05:29:34.062Z,14.50
2022-12-13T05:32:20.703Z,12.20
2022-12-13T05:35:08.446Z,12.73
2022-12-13T05:37:56.562Z,11.43
2022-12-13T05:40:43.480Z,10.97
2022-12-13T05:43:42.402Z,15.27
2022-12-13T05:46:41.506Z,12.93
2022-12-13T05:49:28.372Z,12.27
2022-12-13T05:52:18.840Z,11.97
2022-12-13T05:55:07.684Z,15.37
2022-12-13T05:57:54.501Z,14.33
2022-12-13T06:00:49.157Z,9.90
2022-12-13T06:03:36.121Z,15.83
2022-12-13T06:06:24.250Z,13.63
2022-12-13T06:09:10.725Z,13.47
2022-12-13T06:12:01.078Z,16.67
2022-12-13T06:14:48.261Z,14.20
2022-12-13T06:17:35.702Z,15.20
2022-12-13T06:20:24.749Z,14.80
2022-12-13T06:23:12.015Z,13.07
2022-12-13T06:25:58.826Z,9.70
2022-12-13T06:28:46.837Z,15.77
2022-12-13T06:31:33.826Z,14.93
2022-12-13T06:34:20.737Z,12.93
2022-12-13T06:37:08.854Z,18.53
2022-12-13T06:39:55.354Z,14.27
2022-12-13T06:42:41.883Z,13.73
2022-12-13T06:45:29.801Z,15.07
2022-12-13T06:48:20.192Z,12.90
2022-12-13T06:51:07.873Z,11.97
2022-12-13T06:53:54.745Z,16.53
2022-12-13T06:56:41.510Z,15.90
2022-12-13T06:59:28.296Z,16.90
2022-12-13T07:02:25.684Z,16.87
2022-12-13T07:05:12.654Z,16.03
2022-12-13T07:07:59.307Z,13.53
2022-12-13T07:10:46.283Z,15.03
2022-12-13T07:13:34.199Z,15.10
2022-12-13T07:16:21.318Z,17.10
2022-12-13T07:19:13.536Z,13.87
2022-12-13T07:22:11.211Z,12.07
2022-12-13T07:24:58.035Z,14.90
2022-12-13T07:27:44.588Z,12.60
2022-12-13T07:30:32.496Z,17.53
2022-12-13T07:33:22.766Z,15.17
2022-12-13T07:36:15.147Z,13.53
2022-12-13T07:39:01.452Z,13.97
2022-12-13T07:41:48.125Z,13.47
2022-12-13T07:44:34.875Z,16.63
2022-12-13T07:47:21.461Z,13.60
2022-12-13T07:50:24.423Z,18.63
2022-12-13T07:53:13.425Z,18.73
2022-12-13T07:56:02.582Z,14.93
2022-12-13T07:58:49.263Z,15.73
2022-12-13T08:01:36.111Z,20.43
2022-12-13T08:04:22.759Z,14.83
2022-12-13T08:07:09.818Z,17.27
2022-12-13T08:09:58.018Z,19.33
2022-12-13T08:12:44.745Z,15.40
2022-12-13T08:15:31.801Z,18.43
2022-12-13T08:18:18.291Z,15.73
2022-12-13T08:21:18.533Z,16.77
2022-12-13T08:24:15.804Z,15.83
2022-12-13T08:27:04.673Z,15.10
2022-12-13T08:29:51.206Z,18.70
2022-12-13T08:32:37.659Z,16.93
2022-12-13T08:35:24.667Z,18.30
2022-12-13T08:38:12.657Z,17.27
2022-12-13T08:41:00.202Z,16.20
2022-12-13T08:43:48.030Z,18.83
2022-12-13T08:46:34.745Z,15.77
2022-12-13T08:49:21.741Z,14.30
2022-12-13T08:52:09.240Z,18.30
2022-12-13T08:54:55.700Z,16.13
2022-12-13T08:57:43.889Z,18.87
2022-12-13T09:00:36.065Z,17.70
2022-12-13T09:03:23.561Z,19.47
2022-12-13T09:06:11.862Z,17.53
2022-12-13T09:08:58.404Z,19.73
2022-12-13T09:11:50.247Z,17.40
2022-12-13T09:14:46.640Z,18.77
2022-12-13T09:17:36.904Z,19.03
2022-12-13T09:20:29.177Z,23.07
2022-12-13T09:23:24.293Z,18.37
2022-12-13T09:26:15.014Z,19.23
2022-12-13T09:29:10.576Z,16.73
2022-12-13T09:31:58.085Z,19.77
2022-12-13T09:34:46.444Z,20.33
2022-12-13T09:37:33.461Z,20.83
2022-12-13T09:40:26.370Z,18.93
2022-12-13T09:43:22.941Z,23.80
2022-12-13T09:46:22.554Z,23.63
2022-12-13T09:49:22.592Z,24.50
2022-12-13T09:52:21.485Z,20.73
2022-12-13T09:55:20.346Z,23.47
2022-12-13T09:58:10.274Z,25.37
2022-12-13T10:00:57.653Z,22.00
2022-12-13T10:03:48.946Z,23.07
2022-12-13T10:06:38.659Z,22.10
2022-12-13T10:09:26.811Z,20.50
2022-12-13T10:12:16.470Z,19.97
2022-12-13T10:15:04.454Z,18.90
2022-12-13T10:17:55.716Z,18.50
2022-12-13T10:20:43.776Z,22.87
2022-12-13T10:23:42.600Z,17.57
2022-12-13T10:26:39.994Z,21.87
2022-12-13T10:29:26.963Z,22.77
2022-12-13T10:32:14.439Z,18.93
2022-12-13T10:35:01.470Z,21.90
2022-12-13T10:37:47.891Z,21.97
2022-12-13T10:40:36.831Z,20.33
2022-12-13T10:43:27.408Z,20.10
2022-12-13T10:46:25.296Z,18.03
2022-12-13T10:49:17.941Z,20.37
2022-12-13T10:52:05.287Z,17.20
2022-12-13T10:54:52.655Z,17.23
2022-12-13T10:57:52.516Z,25.77
2022-12-13T11:00:42.969Z,22.63
2022-12-13T11:03:32.394Z,22.43
2022-12-13T11:06:19.072Z,22.83
2022-12-13T11:09:22.832Z,22.03
2022-12-13T11:12:16.315Z,26.73
2022-12-13T11:15:06.277Z,22.97
2022-12-13T11:17:57.829Z,26.67
2022-12-13T11:20:54.531Z,22.00
2022-12-13T11:23:46.110Z,21.83
2022-12-13T11:26:35.405Z,22.60
2022-12-13T11:29:43.014Z,20.37
2022-12-13T11:32:42.736Z,25.20
2022-12-13T11:35:49.789Z,18.03
2022-12-13T11:38:57.624Z,26.37
2022-12-13T11:41:50.185Z,26.13
2022-12-13T11:44:47.844Z,32.27
2022-12-13T11:47:40.391Z,26.80
2022-12-13T11:50:33.360Z,22.57
2022-12-13T11:53:28.053Z,21.93
2022-12-13T11:56:20.713Z,22.73
2022-12-13T11:59:24.322Z,29.13
2022-12-13T12:02:20.296Z,27.70
2022-12-13T12:05:16.653Z,46.27
2022-12-13T12:11:27.523Z,22.73
2022-12-13T12:14:20.294Z,18.10
2022-12-13T12:17:07.229Z,24.00
2022-12-13T12:19:56.821Z,23.27
2022-12-13T12:22:51.385Z,22.63
2022-12-13T12:25:47.467Z,20.73
2022-12-13T12:28:47.798Z,20.27
2022-12-13T12:31:50.851Z,25.60
2022-12-13T12:34:50.014Z,21.20
2022-12-13T12:37:48.434Z,25.33
2022-12-13T12:41:16.109Z,20.20
2022-12-13T12:44:14.185Z,27.17
2022-12-13T12:47:38.233Z,20.33
2022-12-13T12:50:27.280Z,18.73
2022-12-13T12:53:30.164Z,26.20
2022-12-13T12:56:35.761Z,24.33
2022-12-13T12:59:32.142Z,23.50
2022-12-13T13:02:25.159Z,22.33
2022-12-13T13:05:18.866Z,21.63
2022-12-13T13:08:11.715Z,20.30
2022-12-13T13:11:01.994Z,21.30
2022-12-13T13:14:02.429Z,21.50
2022-12-13T13:16:49.306Z,22.73
2022-12-13T13:19:45.548Z,21.47
2022-12-13T13:22:34.958Z,21.07
2022-12-13T13:25:33.101Z,24.50
2022-12-13T13:28:22.656Z,19.77
2022-12-13T13:31:11.052Z,21.77
2022-12-13T13:33:58.322Z,21.43
2022-12-13T13:36:48.245Z,19.20
2022-12-13T13:39:57.356Z,22.07
2022-12-13T13:43:14.102Z,21.00
2022-12-13T13:46:10.939Z,25.03
2022-12-13T13:49:04.731Z,23.40
2022-12-13T13:52:26.400Z,21.00
2022-12-13T13:55:44.849Z,20.80
2022-12-13T13:58:58.119Z,26.20
2022-12-13T14:02:19.578Z,23.30
2022-12-13T14:05:50.311Z,20.77
2022-12-13T14:08:48.457Z,22.80
2022-12-13T14:12:12.994Z,20.57
2022-12-13T14:15:37.400Z,23.90
2022-12-13T14:19:08.958Z,19.93
2022-12-13T14:22:10.162Z,20.43
2022-12-13T14:25:25.317Z,18.57
2022-12-13T14:28:20.352Z,19.97
2022-12-13T14:31:21.639Z,22.80
2022-12-13T14:34:09.526Z,36.83
2022-12-13T14:36:58.347Z,20.27
2022-12-13T14:39:47.198Z,27.10
2022-12-13T14:42:36.098Z,21.80
2022-12-13T14:45:26.151Z,20.57
2022-12-13T14:48:28.027Z,20.03
2022-12-13T14:51:32.062Z,23.03
2022-12-13T14:54:26.174Z,21.43
2022-12-13T14:57:18.431Z,19.97
2022-12-13T15:00:24.139Z,21.07
2022-12-13T15:03:22.676Z,19.50
2022-12-13T15:06:09.582Z,21.30
2022-12-13T15:08:56.127Z,17.23
2022-12-13T15:11:43.443Z,21.40
2022-12-13T15:14:39.790Z,30.53
2022-12-13T15:17:29.765Z,24.17
2022-12-13T15:20:27.792Z,23.27
2022-12-13T15:23:22.742Z,19.17
2022-12-13T15:26:13.088Z,22.13
2022-12-13T15:29:19.790Z,23.13
2022-12-13T15:32:14.063Z,19.63
2022-12-13T15:35:16.522Z,20.67
2022-12-13T15:38:03.333Z,20.00
2022-12-13T15:40:50.645Z,18.10
2022-12-13T15:43:44.623Z,24.53
2022-12-13T15:46:33.616Z,20.37
2022-12-13T15:49:35.249Z,21.20
2022-12-13T15:52:31.968Z,25.07
2022-12-13T15:55:28.789Z,25.07
2022-12-13T15:58:26.749Z,23.63
2022-12-13T16:01:27.135Z,22.63
2022-12-13T16:04:24.821Z,19.57
2022-12-13T16:07:23.977Z,20.23
2022-12-13T16:10:19.801Z,24.63
2022-12-13T16:13:08.441Z,25.93
2022-12-13T16:16:00.543Z,24.07
2022-12-13T16:18:57.784Z,26.87
2022-12-13T16:21:45.531Z,26.03
2022-12-13T16:24:32.371Z,25.10
2022-12-13T16:27:18.949Z,23.27
2022-12-13T16:30:13.456Z,23.30
2022-12-13T16:33:18.569Z,23.30
2022-12-13T16:36:06.162Z,27.57
2022-12-13T16:38:54.008Z,23.00
2022-12-13T16:41:44.002Z,21.13
2022-12-13T16:44:35.828Z,22.00
2022-12-13T16:47:33.731Z,22.37
2022-12-13T16:50:25.971Z,22.43
2022-12-13T16:53:17.159Z,22.67
2022-12-13T16:56:05.823Z,19.00
2022-12-13T16:58:52.213Z,19.50
2022-12-13T17:01:39.079Z,24.50
2022-12-13T17:04:27.175Z,21.70
2022-12-13T17:07:14.239Z,22.80
2022-12-13T17:10:01.277Z,21.73
2022-12-13T17:12:49.138Z,22.57
2022-12-13T17:15:35.743Z,24.90
2022-12-13T17:18:22.606Z,21.97
2022-12-13T17:21:10.459Z,23.77
2022-12-13T17:23:57.000Z,25.10
2022-12-13T17:26:54.663Z,24.57
2022-12-13T17:29:43.589Z,31.07
2022-12-13T17:32:30.101Z,23.50
2022-12-13T17:35:18.566Z,22.00
2022-12-13T17:38:05.173Z,25.13
2022-12-13T17:40:54.813Z,24.73
2022-12-13T17:43:42.504Z,20.77
2022-12-13T17:46:31.280Z,21.93
2022-12-13T17:49:17.966Z,21.53
2022-12-13T17:52:04.743Z,24.73
2022-12-13T17:54:51.798Z,21.93
2022-12-13T17:57:38.365Z,19.60
2022-12-13T18:00:24.891Z,23.27
2022-12-13T18:03:12.820Z,22.30
2022-12-13T18:06:00.437Z,24.70
2022-12-13T18:08:48.287Z,24.30
2022-12-13T18:11:35.787Z,23.43
2022-12-13T18:14:22.763Z,27.10
2022-12-13T18:17:09.209Z,25.07
2022-12-13T18:19:57.119Z,23.87
2022-12-13T18:22:46.984Z,22.93
2022-12-13T18:25:38.530Z,30.47
2022-12-13T18:28:25.308Z,23.77
2022-12-13T18:31:14.189Z,25.70
2022-12-13T18:34:01.370Z,27.80
2022-12-13T18:36:49.604Z,27.73
2022-12-13T18:39:36.236Z,26.80
2022-12-13T18:42:22.783Z,25.60
2022-12-13T18:45:09.842Z,22.50
2022-12-13T18:47:57.129Z,28.63
2022-12-13T18:50:48.616Z,22.97
2022-12-13T18:53:37.786Z,24.20
2022-12-13T18:56:25.854Z,27.10
2022-12-13T18:59:12.669Z,34.50
2022-12-13T19:01:59.303Z,36.60
2022-12-13T19:04:55.184Z,38.90
2022-12-13T19:07:42.767Z,32.83
2022-12-13T19:10:30.675Z,34.30
2022-12-13T19:13:17.539Z,27.63
2022-12-13T19:16:07.451Z,31.70
2022-12-13T19:18:54.767Z,31.83
2022-12-13T19:21:41.297Z,26.63
2022-12-13T19:24:28.166Z,29.77
2022-12-13T19:27:16.400Z,30.77
2022-12-13T19:30:03.088Z,26.30
2022-12-13T19:32:49.602Z,29.87
2022-12-13T19:35:36.194Z,32.63
2022-12-13T19:38:22.673Z,25.57
2022-12-13T19:41:10.266Z,26.83
2022-12-13T19:43:58.770Z,28.07
2022-12-13T19:46:45.439Z,27.77
2022-12-13T19:49:31.876Z,25.40
2022-12-13T19:52:18.418Z,28.47
2022-12-13T19:55:05.657Z,35.93
2022-12-13T19:57:52.707Z,32.13
2022-12-13T20:00:41.041Z,30.40
2022-12-13T20:03:28.177Z,30.20
2022-12-13T20:06:17.139Z,35.53
2022-12-13T20:09:03.612Z,39.30
2022-12-13T20:11:50.174Z,32.47
2022-12-13T20:14:36.679Z,45.00
2022-12-13T20:17:24.471Z,39.00
2022-12-13T20:20:12.408Z,36.23
2022-12-13T20:22:58.944Z,37.70
2022-12-13T20:25:45.579Z,26.90
2022-12-13T20:28:34.275Z,23.17
2022-12-13T20:31:22.585Z,28.60
2022-12-13T20:34:14.369Z,24.90
2022-12-13T20:37:01.072Z,25.70
2022-12-13T20:39:47.512Z,27.20
2022-12-13T20:42:34.355Z,27.43
2022-12-13T20:45:21.120Z,20.73
2022-12-13T20:48:07.914Z,26.63
2022-12-13T20:51:01.678Z,19.50
2022-12-13T20:53:50.028Z,17.73
2022-12-13T20:56:38.582Z,17.53
2022-12-13T20:59:25.095Z,12.97
2022-12-13T21:02:11.860Z,10.50
2022-12-13T21:04:58.625Z,13.50
2022-12-13T21:08:04.159Z,15.27
2022-12-13T21:10:50.787Z,14.47
2022-12-13T21:13:37.341Z,13.27
2022-12-13T21:16:25.270Z,15.33
2022-12-13T21:19:14.206Z,14.23
2022-12-13T21:22:00.631Z,14.33
2022-12-13T21:24:48.532Z,16.00
2022-12-13T21:27:35.471Z,15.10
2022-12-13T21:30:22.315Z,18.57
2022-12-13T21:33:09.186Z,16.00
2022-12-13T21:35:56.689Z,18.77
2022-12-13T21:38:44.192Z,16.63
2022-12-13T21:41:32.247Z,17.43
2022-12-13T21:44:20.538Z,18.43
2022-12-13T21:47:12.394Z,16.63
2022-12-13T21:49:59.552Z,21.40
2022-12-13T21:52:49.648Z,22.70
2022-12-13T21:55:43.589Z,22.10
2022-12-13T21:58:49.078Z,23.53
2022-12-13T22:01:49.886Z,20.67
2022-12-13T22:04:38.185Z,22.63
2022-12-13T22:07:27.026Z,18.50
2022-12-13T22:10:13.669Z,26.13
2022-12-13T22:13:00.086Z,22.20
2022-12-13T22:15:48.075Z,18.80
2022-12-13T22:18:34.910Z,17.27
2022-12-13T22:21:21.889Z,18.53
2022-12-13T22:24:09.583Z,24.23
2022-12-13T22:26:56.225Z,23.40
2022-12-13T22:29:42.782Z,28.33
2022-12-13T22:32:33.952Z,25.30
2022-12-13T22:35:20.647Z,24.87
2022-12-13T22:38:07.163Z,25.93
2022-12-13T22:40:53.502Z,25.87
2022-12-13T22:43:39.983Z,21.17
2022-12-13T22:46:26.890Z,18.90
2022-12-13T22:49:15.586Z,18.00
2022-12-13T22:52:02.172Z,19.00
2022-12-13T22:54:48.802Z,16.20
2022-12-13T22:57:35.351Z,19.53
2022-12-13T23:00:21.860Z,23.00
2022-12-13T23:03:08.686Z,19.77
2022-12-13T23:05:56.516Z,18.17
2022-12-13T23:08:45.766Z,18.57
2022-12-13T23:11:50.250Z,16.17
2022-12-13T23:14:37.345Z,17.13
2022-12-13T23:17:24.017Z,15.20
2022-12-13T23:20:11.783Z,19.93
2022-12-13T23:22:59.797Z,17.57
2022-12-13T23:25:48.912Z,19.70
2022-12-13T23:28:36.191Z,15.37
2022-12-13T23:31:23.439Z,16.23
2022-12-13T23:34:10.742Z,18.73
2022-12-13T23:36:57.249Z,18.63
2022-12-13T23:39:45.093Z,16.40
2022-12-13T23:42:31.828Z,15.13
2022-12-13T23:45:18.419Z,16.20
2022-12-13T23:48:04.928Z,13.87
2022-12-13T23:50:51.806Z,17.23
2022-12-13T23:53:38.922Z,17.33
2022-12-13T23:56:27.470Z,20.90
2022-12-13T23:59:14.175Z,13.07
